Flight Track Log - Related Links

Times and Time Zones

All times are in EDT time to prevent confusion due to time zone crossing. See the CNS33 flight status page for this flight to view local times or setup timezone preferences in your user account.

Time Position Orientation Groundspeed Altitude Reporting Facility
EDT Latitude Longitude Course Direction KTS MPH feet Rate Location/Type
Sat 02:01:06 PM 40.7667 -74.4333 180° South 110 127 1,500  Level New York TRACON
Sat 02:02:06 PM 40.7333 -74.4333 180° South 133 153 2,800 1,450 Climbing New York TRACON
Sat 02:03:06 PM 40.7333 -74.4000 90° East 143 165 4,400 1,600 Climbing New York TRACON
Sat 02:04:06 PM 40.7667 -74.4167 339° North 155 178 6,000 1,465 Climbing New York TRACON
Sat 02:05:13 PM 40.8000 -74.4500 323° Northwest 157 181 7,500 1,323 Climbing New York TRACON
Sat 02:06:13 PM 40.8500 -74.4833 333° Northwest 156 180 8,800 1,179 Climbing New York TRACON
Sat 02:07:05 PM 40.8836 -74.5092 330° Northwest 173 199 9,700 1,071 Climbing New York Center
Sat 02:08:05 PM 40.9306 -74.5447 330° Northwest 185 213 10,800 1,091 Climbing New York Center
Sat 02:09:06 PM 40.9753 -74.5747 333° Northwest 202 232 11,900 1,091 Climbing New York Center
Sat 02:10:06 PM 41.0181 -74.6075 330° Northwest 192 221 13,000 1,000 Climbing New York Center
Sat 02:11:06 PM 41.0628 -74.6403 331° Northwest 197 227 13,900 446 Climbing New York Center
Sat 02:12:07 PM 41.1239 -74.6850 331° Northwest 212 244 13,900  Level New York Center
Sat 02:13:07 PM 41.1611 -74.7533 306° West 241 277 13,900 559 Level New York Center
Sat 02:14:05 PM 41.1997 -74.8411 300° West 255 293 15,000 1,220 Climbing New York Center
Sat 02:15:05 PM 41.2269 -74.8978 303° West 228 262 16,300 1,279 Climbing New York Center
Sat 02:16:07 PM 41.2539 -74.9631 299° West 203 234 17,600 934 Climbing New York Center
Sat 02:17:07 PM 41.2789 -75.0197 300° West 186 214 18,200 712 Climbing New York Center
Sat 02:18:05 PM 41.3058 -75.0822 300° West 191 220 19,000 864 Climbing New York Center
Sat 02:19:05 PM 41.3306 -75.1447 298° West 191 220 19,900 843 Climbing New York Center
Sat 02:20:06 PM 41.3575 -75.2072 300° West 191 220 20,700 787 Climbing New York Center
Sat 02:21:07 PM 41.3822 -75.2642 300° West 186 214 21,500 645 Climbing New York Center
Sat 02:22:07 PM 41.4072 -75.3239 299° West 186 214 22,000 254 Climbing New York Center
Sat 02:23:05 PM 41.4378 -75.3922 301° West 198 228 22,000  Level New York Center
Sat 02:24:06 PM 41.4681 -75.4664 299° West 212 244 22,000  Level New York Center
Sat 02:25:06 PM 41.4961 -75.5514 294° West 236 272 22,000  Level New York Center
Sat 02:26:07 PM 41.5197 -75.6361 290° West 246 283 22,000  Level New York Center
Sat 02:27:07 PM 41.5472 -75.7242 293° West 252 290 22,000  Level New York Center
Sat 02:28:07 PM 41.5689 -75.8061 307° West 257 296 22,000  Level New York Center
Sat 02:29:05 PM 41.5942 -75.8969 290° West 257 296 22,000  Level New York Center
Sat 02:30:05 PM 41.6194 -75.9847 291° West 257 296 22,000  Level New York Center
Sat 02:31:07 PM 41.6444 -76.0756 290° West 257 296 22,000  Level New York Center
Sat 02:32:07 PM 41.6717 -76.1667 292° West 257 296 22,000  Level New York Center
Sat 02:33:05 PM 41.6967 -76.2575 290° West 257 296 22,000  Level New York Center
Sat 02:34:07 PM 41.7217 -76.3486 290° West 257 296 22,000  Level New York Center
Sat 02:35:07 PM 41.7444 -76.4367 289° West 257 296 22,000  Level New York Center
Sat 02:36:07 PM 41.7714 -76.5278 292° West 257 296 22,000  Level New York Center
Sat 02:37:05 PM 41.7961 -76.6192 290° West 257 296 22,000  Level New York Center
Sat 02:39:00 PM 41.8453 -76.7947 291° West 259 298 22,000  Level Cleveland Center
Sat 02:40:00 PM 41.8714 -76.8853 291° West 264 304 22,000  Level Cleveland Center
Sat 02:41:00 PM 41.8950 -76.9761 289° West 264 304 22,000  Level Cleveland Center
Sat 02:42:00 PM 41.9208 -77.0694 290° West 264 304 22,000  Level Cleveland Center
Sat 02:43:00 PM 41.9467 -77.1603 291° West 264 304 22,000  Level Cleveland Center
Sat 02:44:00 PM 41.9703 -77.2539 289° West 264 304 22,000  Level Cleveland Center
Sat 02:45:00 PM 41.9956 -77.3447 291° West 264 304 22,000  Level Cleveland Center
Sat 02:46:00 PM 42.0192 -77.4358 289° West 264 304 22,000  Level Cleveland Center
Sat 02:47:00 PM 42.0361 -77.5300 284° West 264 304 22,000  Level Cleveland Center
Sat 02:48:00 PM 42.0553 -77.6244 285° West 259 298 22,000  Level Cleveland Center
Sat 02:49:00 PM 42.0703 -77.7189 282° West 259 298 22,000  Level Cleveland Center
Sat 02:50:00 PM 42.0872 -77.8131 284° West 259 298 22,000  Level Cleveland Center
Sat 02:51:00 PM 42.1039 -77.9075 283° West 259 298 22,000  Level Cleveland Center
Sat 02:52:00 PM 42.1208 -78.0047 283° West 259 298 22,000  Level Cleveland Center
Sat 02:53:00 PM 42.1397 -78.1022 285° West 259 298 22,000  Level Cleveland Center
Sat 02:54:00 PM 42.1519 -78.1969 280° West 259 298 22,000  Level Cleveland Center
Sat 02:55:00 PM 42.1686 -78.2972 283° West 259 298 22,000  Level Cleveland Center
Sat 02:56:00 PM 42.1872 -78.3917 285° West 264 304 22,000  Level Cleveland Center
Sat 02:57:00 PM 42.2058 -78.4919 284° West 264 304 22,000  Level Cleveland Center
Sat 02:58:00 PM 42.2219 -78.5869 283° West 264 304 22,000  Level Cleveland Center
Sat 02:59:00 PM 42.2383 -78.6844 283° West 264 304 22,000  Level Cleveland Center
Sat 03:00:00 PM 42.2544 -78.7822 283° West 264 304 22,000  Level Cleveland Center
Sat 03:01:00 PM 42.2706 -78.8772 283° West 269 310 22,000  Level Cleveland Center
Sat 03:02:00 PM 42.2844 -78.9778 281° West 269 310 22,000  Level Cleveland Center
Sat 03:03:00 PM 42.3003 -79.0756 282° West 269 310 22,000  Level Cleveland Center
Sat 03:04:00 PM 42.3183 -79.1847 283° West 274 315 22,000  Level Cleveland Center
Sat 03:05:00 PM 42.3342 -79.2828 282° West 274 315 22,000  Level Cleveland Center
Sat 03:06:00 PM 42.3519 -79.3806 284° West 274 315 22,000  Level Cleveland Center
Sat 03:07:00 PM 42.3653 -79.4789 280° West 274 315 22,000  Level Cleveland Center
Sat 03:08:00 PM 42.3828 -79.5769 284° West 274 315 22,000  Level Cleveland Center
Sat 03:09:00 PM 42.3961 -79.6722 281° West 274 315 22,000  Level Cleveland Center
Sat 03:10:00 PM 42.4114 -79.7706 282° West 274 315 22,000  Level Cleveland Center
Sat 03:11:00 PM 42.4289 -79.8658 284° West 274 315 22,000  Level Cleveland Center
Sat 03:12:00 PM 42.4439 -79.9642 282° West 274 315 22,000  Level Cleveland Center
Sat 03:13:00 PM 42.4592 -80.0653 282° West 274 315 22,000  Level Cleveland Center
Sat 03:14:00 PM 42.4719 -80.1525 281° West 274 315 22,000  Level Cleveland Center
Sat 03:15:00 PM 42.4889 -80.2508 283° West 274 315 22,000  Level Cleveland Center
Sat 03:16:00 PM 42.5017 -80.3494 280° West 274 315 22,000  Level Cleveland Center
Sat 03:17:00 PM 42.5186 -80.4481 283° West 274 315 22,000  Level Cleveland Center
Sat 03:18:00 PM 42.5331 -80.5494 281° West 274 315 22,000  Level Cleveland Center
Sat 03:19:00 PM 42.5478 -80.6481 281° West 274 315 22,000  Level Cleveland Center
Sat 03:20:00 PM 42.5622 -80.7439 282° West 274 315 22,000  Level Cleveland Center
Sat 03:21:00 PM 42.5786 -80.8539 281° West 274 315 22,000  Level Cleveland Center
Sat 03:22:00 PM 42.5931 -80.9556 281° West 274 315 22,000  Level Cleveland Center
Sat 03:23:00 PM 42.6072 -81.0542 281° West 280 322 22,000  Level Cleveland Center
Sat 03:24:00 PM 42.6214 -81.1558 281° West 272 313 22,000  Level Cleveland Center
Sat 03:25:00 PM 42.6353 -81.2547 281° West 272 313 22,000  Level Cleveland Center
Sat 03:26:00 PM 42.6514 -81.3511 283° West 278 320 22,000  Level Cleveland Center
Sat 03:27:00 PM 42.6653 -81.4500 281° West 278 320 22,000  Level Cleveland Center
Sat 03:28:00 PM 42.6792 -81.5519 281° West 278 320 22,000  Level Cleveland Center
Sat 03:29:00 PM 42.6928 -81.6539 280° West 278 320 22,000  Level Cleveland Center
Sat 03:30:00 PM 42.7086 -81.7500 283° West 278 320 22,000  Level Cleveland Center
Sat 03:31:00 PM 42.7200 -81.8519 279° West 270 311 22,000  Level Cleveland Center
Sat 03:32:00 PM 42.7333 -81.9569 280° West 276 318 22,000  Level Cleveland Center
Sat 03:33:00 PM 42.7467 -82.0561 280° West 276 318 22,000  Level Cleveland Center
Sat 03:34:00 PM 42.7619 -82.1583 282° West 276 318 22,000  Level Cleveland Center
Sat 03:35:00 PM 42.7772 -82.2578 282° West 276 318 22,000  Level Cleveland Center
Sat 03:36:00 PM 42.7903 -82.3600 280° West 276 318 22,000  Level Cleveland Center
Sat 03:37:00 PM 42.8033 -82.4594 280° West 276 318 22,000  Level Cleveland Center
Sat 03:38:00 PM 42.8164 -82.5589 280° West 276 318 22,000  Level Cleveland Center
Sat 03:39:00 PM 42.8292 -82.6583 280° West 276 318 22,000  Level Cleveland Center
Sat 03:40:00 PM 42.8419 -82.7578 280° West 276 318 22,000  Level Cleveland Center
Sat 03:41:00 PM 42.8567 -82.8603 281° West 276 318 22,000  Level Cleveland Center
Sat 03:42:00 PM 42.8692 -82.9656 279° West 276 318 22,000  Level Cleveland Center
Sat 03:43:00 PM 42.8817 -83.0653 280° West 276 318 22,000  Level Cleveland Center
Sat 03:44:00 PM 42.8939 -83.1650 280° West 276 318 22,000  Level Cleveland Center
Sat 03:45:00 PM 42.9061 -83.2675 279° West 276 318 22,000  Level Cleveland Center
Sat 03:46:00 PM 42.9183 -83.3731 279° West 276 318 22,000  Level Cleveland Center
Sat 03:47:00 PM 42.9283 -83.4697 278° West 276 318 22,000  Level Cleveland Center
Sat 03:48:00 PM 42.9403 -83.5725 279° West 276 318 22,000  Level Cleveland Center
Sat 03:49:00 PM 42.9503 -83.6722 278° West 276 318 22,000  Level Cleveland Center
Sat 03:50:00 PM 42.9619 -83.7750 279° West 276 318 22,000  Level Cleveland Center
Sat 03:51:00 PM 42.9717 -83.8778 277° West 276 318 22,000  Level Cleveland Center
Sat 03:52:00 PM 42.9811 -83.9803 277° West 276 318 22,000  Level Cleveland Center
Sat 03:53:00 PM 42.9928 -84.0833 279° West 276 318 22,000  Level Cleveland Center
Sat 03:54:00 PM 43.0022 -84.1858 277° West 276 318 22,000  Level Cleveland Center
Sat 03:55:00 PM 43.0114 -84.2858 277° West 276 318 22,000  Level Cleveland Center
Sat 03:56:00 PM 43.0247 -84.3889 280° West 276 318 22,000  Level Cleveland Center
Sat 03:56:57 PM 43.0311 -84.4733 276° West 276 318 22,000  Level Chicago Center
Sat 03:57:59 PM 43.0417 -84.5783 278° West 279 321 22,000  Level Chicago Center
Sat 03:59:01 PM 43.0533 -84.7022 277° West 277 319 22,000  Level Chicago Center
Sat 04:00:02 PM 43.0633 -84.8067 278° West 278 320 22,000  Level Chicago Center
Sat 04:01:04 PM 43.0728 -84.9097 277° West 275 316 22,000  Level Chicago Center
Sat 04:02:06 PM 43.0817 -85.0131 277° West 275 316 22,000  Level Chicago Center
Sat 04:03:08 PM 43.0917 -85.1183 277° West 276 318 22,000  Level Chicago Center
Sat 04:04:10 PM 43.1011 -85.2236 277° West 281 323 22,000  Level Chicago Center
Sat 04:05:11 PM 43.1100 -85.3286 277° West 280 322 22,000  Level Chicago Center
Sat 04:06:13 PM 43.1211 -85.4556 277° West 282 325 22,000  Level Chicago Center
Sat 04:07:15 PM 43.1303 -85.5611 277° West 282 325 22,000  Level Chicago Center
Sat 04:08:17 PM 43.1392 -85.6656 277° West 279 321 22,000  Level Chicago Center
Sat 04:09:19 PM 43.1478 -85.7703 276° West 279 321 22,000  Level Chicago Center
Sat 04:10:20 PM 43.1567 -85.8747 277° West 281 323 22,000  Level Chicago Center
Sat 04:11:22 PM 43.1675 -85.9992 277° West 281 323 22,000  Level Chicago Center
Sat 04:12:24 PM 43.1703 -86.1033 272° West 280 322 22,000 -97 Level Chicago Center
Sat 04:13:26 PM 43.1681 -86.2072 268° West 278 320 21,800 -677 Descending Chicago Center
Sat 04:14:28 PM 43.1661 -86.3183 269° West 288 331 20,600 -1,122 Descending Chicago Center
Sat 04:15:29 PM 43.1642 -86.4361 269° West 306 352 19,500 -1,220 Descending Chicago Center
Sat 04:16:31 PM 43.1617 -86.5761 269° West 309 356 18,100 -1,210 Descending Chicago Center
Sat 04:17:33 PM 43.1592 -86.6911 268° West 305 351 17,000 -1,073 Descending Chicago Center
Sat 04:18:34 PM 43.1569 -86.8050 269° West 302 348 15,900 -1,122 Descending Chicago Center
Sat 04:19:36 PM 43.1536 -86.9183 268° West 300 345 14,700 -1,113 Descending Chicago Center
Sat 04:20:38 PM 43.1503 -87.0308 268° West 297 342 13,600 -1,210 Descending Chicago Center
Sat 04:21:40 PM 43.1464 -87.1447 267° West 300 345 12,200 -1,317 Descending Chicago Center
Sat 04:22:41 PM 43.1417 -87.2561 267° West 294 338 10,900 -1,366 Descending Chicago Center
Sat 04:23:43 PM 43.1369 -87.3850 267° West 285 328 9,400 -1,355 Descending Chicago Center
Sat 04:24:45 PM 43.1328 -87.4931 267° West 277 319 8,100 -1,210 Descending Chicago Center
Sat 04:25:47 PM 43.1292 -87.5947 267° West 271 312 6,900 -1,220 Descending Chicago Center
Sat 04:26:48 PM 43.1233 -87.6944 265° West 264 304 5,600 -1,268 Descending Chicago Center
Sat 04:27:50 PM 43.1206 -87.7947 268° West 263 303 4,300 -1,210 Descending Chicago Center
Sat 04:28:52 PM 43.1211 -87.8883 270° West 253 291 3,100 -629 Descending Chicago Center
Sat 04:29:54 PM 43.1322 -87.9669 281° West 230 265 3,000 -585 Descending Chicago Center
Sat 04:30:55 PM 43.1464 -88.0417 285° West 191 220 1,900 -878 Descending Chicago Center
Sat 04:31:57 PM 43.1261 -88.0469 191° South 139 160 1,200 -677 Descending Chicago Center
Sat 04:33:00 PM 43.1104 -88.0344 160° South  Level Estimated

Login

Don't have an account? Register now (free) for customized features, flight alerts, and more!